Time;durP1;ratioP1;P1;durP2;ratioP2;P2;SDS_P1;SDS_P2;PMS_P1;PMS_P2;Temp;Humidity;BMP_temperature;BMP_pressure;BME280_temperature;BME280_humidity;BME280_pressure;Samples;Min_cycle;Max_cycle;Signal;HPM_P1;HPM_P2
2022/02/11 00:00:12;;;;;;;;;;;19.20;58.40;;;;;;5060575;28;1274;-68
2022/02/11 00:07:48;;;;;;;;;;;19.20;58.50;;;;;;5055801;28;1036;-68
2022/02/11 00:10:13;;;;;;;;;;;19.20;58.50;;;;;;5055677;28;1215;-69
2022/02/11 00:12:39;;;;;;;;;;;19.20;58.50;;;;;;5057887;28;1095;-68
2022/02/11 00:17:50;;;;;;;;;;;19.20;58.50;;;;;;5053520;28;948;-68
2022/02/11 00:20:16;;;;;;;;;;;19.20;58.60;;;;;;5036216;28;1282;-69
2022/02/11 00:22:42;;;;;;;;;;;19.20;58.60;;;;;;5053296;28;1964;-68
2022/02/11 00:25:07;;;;;;;;;;;19.10;58.60;;;;;;5053692;28;1075;-69
2022/02/11 00:30:45;;;;;;;;;;;19.10;58.60;;;;;;5053011;28;1271;-69
2022/02/11 00:33:26;;;;;;;;;;;19.10;58.60;;;;;;5072833;28;1094;-69
2022/02/11 00:35:58;;;;;;;;;;;19.20;58.70;;;;;;5055422;28;1123;-69
2022/02/11 00:38:34;;;;;;;;;;;19.20;58.80;;;;;;5035881;28;1298;-69
2022/02/11 00:44:35;;;;;;;;;;;19.10;58.70;;;;;;5052966;28;1115;-69
2022/02/11 01:02:49;;;;;;;;;;;19.10;58.90;;;;;;5063090;28;1898;-69
2022/02/11 01:05:14;;;;;;;;;;;19.00;58.90;;;;;;5060145;28;1008;-69
2022/02/11 01:07:40;;;;;;;;;;;19.00;58.90;;;;;;5072645;28;1263;-69
2022/02/11 01:10:05;;;;;;;;;;;19.00;58.90;;;;;;5072436;28;1217;-69
2022/02/11 01:12:31;;;;;;;;;;;19.10;59.00;;;;;;5072644;28;1388;-69
2022/02/11 01:14:57;;;;;;;;;;;19.00;58.90;;;;;;5054963;28;1338;-69
2022/02/11 01:20:04;;;;;;;;;;;19.00;58.90;;;;;;5072104;28;1313;-69
2022/02/11 01:25:26;;;;;;;;;;;19.00;59.00;;;;;;5073072;28;1358;-69
2022/02/11 01:28:07;;;;;;;;;;;19.00;59.00;;;;;;5072206;28;1126;-69
2022/02/11 01:33:38;;;;;;;;;;;19.00;59.00;;;;;;5037738;28;1281;-69
2022/02/11 01:36:23;;;;;;;;;;;19.00;59.00;;;;;;5055376;28;1147;-69
2022/02/11 01:44:41;;;;;;;;;;;19.00;59.10;;;;;;5048909;28;1008;-69
2022/02/11 01:58:54;;;;;;;;;;;19.00;59.10;;;;;;4961000;28;1305;-69
2022/02/11 02:01:51;;;;;;;;;;;18.90;59.10;;;;;;5019643;28;1100;-69
2022/02/11 02:10:21;;;;;;;;;;;18.90;59.20;;;;;;5055636;28;1365;-69
2022/02/11 02:20:37;;;;;;;;;;;18.90;59.20;;;;;;5075239;28;1225;-69
2022/02/11 02:38:40;;;;;;;;;;;18.90;59.30;;;;;;5055150;28;1472;-69
2022/02/11 02:57:17;;;;;;;;;;;18.90;59.40;;;;;;5059937;28;933;-69
2022/02/11 03:51:24;;;;;;;;;;;18.80;59.60;;;;;;5058868;28;1365;-69
2022/02/11 04:21:34;;;;;;;;;;;18.70;59.60;;;;;;5058164;28;1157;-69
2022/02/11 04:56:43;;;;;;;;;;;18.70;59.70;;;;;;5064358;28;1015;-69
2022/02/11 05:01:52;;;;;;;;;;;18.70;59.80;;;;;;5041771;28;1870;-68
2022/02/11 05:04:17;;;;;;;;;;;18.70;59.80;;;;;;5052602;28;1134;-69
2022/02/11 05:06:43;;;;;;;;;;;18.70;59.80;;;;;;5052436;28;1051;-68
2022/02/11 05:09:08;;;;;;;;;;;18.70;59.80;;;;;;5052289;28;1324;-68
2022/02/11 05:11:34;;;;;;;;;;;18.70;59.80;;;;;;5034949;28;1291;-68
2022/02/11 05:13:59;;;;;;;;;;;18.70;59.80;;;;;;5034761;28;1061;-68
2022/02/11 05:16:25;;;;;;;;;;;18.70;59.80;;;;;;5052789;28;1313;-68
2022/02/11 05:18:50;;;;;;;;;;;18.70;59.80;;;;;;5047710;28;1316;-68
2022/02/11 05:21:16;;;;;;;;;;;18.70;59.80;;;;;;5034941;28;1389;-68
2022/02/11 05:23:41;;;;;;;;;;;18.70;59.80;;;;;;5034675;28;1975;-68
2022/02/11 05:26:06;;;;;;;;;;;18.70;59.80;;;;;;5034845;28;1447;-68
2022/02/11 05:28:32;;;;;;;;;;;18.70;59.80;;;;;;5034367;28;1378;-68
2022/02/11 05:30:57;;;;;;;;;;;18.70;59.80;;;;;;5058436;28;1234;-69
2022/02/11 05:33:24;;;;;;;;;;;18.70;59.80;;;;;;5072586;28;1281;-69
2022/02/11 05:35:49;;;;;;;;;;;18.70;59.80;;;;;;5072414;28;1433;-69
2022/02/11 05:38:15;;;;;;;;;;;18.70;59.90;;;;;;5054310;28;1405;-68
2022/02/11 05:40:40;;;;;;;;;;;18.70;59.90;;;;;;5072261;28;1408;-69
2022/02/11 05:43:06;;;;;;;;;;;18.60;59.80;;;;;;5072407;28;1906;-69
2022/02/11 05:45:31;;;;;;;;;;;18.60;59.80;;;;;;5072449;28;1132;-69
2022/02/11 05:47:57;;;;;;;;;;;18.60;59.80;;;;;;5054436;28;1233;-69
2022/02/11 05:50:22;;;;;;;;;;;18.60;59.80;;;;;;5072488;28;1376;-69
2022/02/11 05:52:47;;;;;;;;;;;18.60;59.80;;;;;;5034405;28;1385;-68
2022/02/11 05:55:13;;;;;;;;;;;18.60;59.80;;;;;;5034445;28;1082;-68
2022/02/11 05:57:38;;;;;;;;;;;18.70;59.80;;;;;;5052357;28;1156;-69
2022/02/11 06:00:04;;;;;;;;;;;18.60;59.70;;;;;;5051747;28;1263;-69
2022/02/11 06:02:29;;;;;;;;;;;18.70;59.70;;;;;;5042721;28;1965;-68
2022/02/11 06:04:55;;;;;;;;;;;18.80;59.70;;;;;;5053828;28;1286;-69
2022/02/11 06:07:20;;;;;;;;;;;18.90;59.70;;;;;;5052031;28;1362;-68
2022/02/11 06:09:46;;;;;;;;;;;19.00;59.60;;;;;;5051812;28;1495;-68
2022/02/11 06:12:12;;;;;;;;;;;19.10;59.50;;;;;;5052138;28;1066;-69
2022/02/11 06:14:38;;;;;;;;;;;19.20;59.20;;;;;;5061708;28;1979;-69
2022/02/11 06:17:06;;;;;;;;;;;19.30;58.80;;;;;;5049166;28;1642;-69
2022/02/11 06:19:32;;;;;;;;;;;19.50;58.50;;;;;;5071161;22;1976;-73
2022/02/11 06:21:57;;;;;;;;;;;19.60;58.20;;;;;;5048096;28;1902;-73
2022/02/11 06:24:22;;;;;;;;;;;19.80;57.90;;;;;;5055488;28;1078;-73
2022/02/11 06:26:48;;;;;;;;;;;19.90;57.50;;;;;;5055724;28;1385;-73
2022/02/11 06:29:13;;;;;;;;;;;20.00;57.30;;;;;;5055182;28;1391;-73
2022/02/11 06:31:39;;;;;;;;;;;20.20;57.00;;;;;;5054360;28;1391;-73
2022/02/11 06:34:06;;;;;;;;;;;20.30;56.70;;;;;;5037376;28;1335;-74
2022/02/11 06:36:32;;;;;;;;;;;20.40;56.50;;;;;;5054509;28;1304;-74
2022/02/11 06:38:57;;;;;;;;;;;20.50;56.20;;;;;;5035545;28;1343;-74
2022/02/11 06:41:23;;;;;;;;;;;20.60;56.00;;;;;;5046823;28;1357;-74
2022/02/11 06:43:48;;;;;;;;;;;20.70;55.80;;;;;;5053871;28;1968;-74
2022/02/11 06:46:15;;;;;;;;;;;20.70;55.50;;;;;;5054111;28;1075;-74
2022/02/11 06:48:40;;;;;;;;;;;20.80;55.40;;;;;;5053531;28;1315;-74
2022/02/11 06:51:05;;;;;;;;;;;20.90;55.20;;;;;;5055196;28;1086;-72
2022/02/11 06:53:31;;;;;;;;;;;20.90;55.00;;;;;;5055085;28;1371;-73
2022/02/11 06:55:56;;;;;;;;;;;20.90;54.90;;;;;;5053928;28;1115;-75
2022/02/11 06:58:22;;;;;;;;;;;21.00;54.80;;;;;;5036761;28;1126;-71
2022/02/11 07:00:51;;;;;;;;;;;21.00;54.70;;;;;;5055394;28;1198;-70
2022/02/11 07:03:16;;;;;;;;;;;21.10;54.30;;;;;;5053430;28;1902;-71
2022/02/11 07:05:42;;;;;;;;;;;21.00;52.60;;;;;;5053582;28;1342;-74
2022/02/11 07:08:07;;;;;;;;;;;21.00;51.80;;;;;;5053519;28;1198;-73
2022/02/11 07:10:33;;;;;;;;;;;21.00;51.60;;;;;;5053368;28;1213;-74
2022/02/11 07:12:58;;;;;;;;;;;21.00;51.50;;;;;;5053551;28;1438;-74
2022/02/11 07:15:24;;;;;;;;;;;21.10;51.60;;;;;;5036827;28;1322;-73
2022/02/11 07:17:49;;;;;;;;;;;21.10;51.70;;;;;;5054576;28;940;-73
2022/02/11 07:20:15;;;;;;;;;;;21.10;51.80;;;;;;5054031;28;1319;-73
2022/02/11 07:22:40;;;;;;;;;;;21.20;51.90;;;;;;5054465;28;1906;-73
2022/02/11 07:25:06;;;;;;;;;;;21.20;52.00;;;;;;5053207;28;1170;-73
2022/02/11 07:27:32;;;;;;;;;;;21.20;52.10;;;;;;5054657;28;1139;-73
2022/02/11 07:29:57;;;;;;;;;;;21.30;52.20;;;;;;5032209;28;1315;-73
2022/02/11 07:32:25;;;;;;;;;;;21.30;52.30;;;;;;5052918;28;1088;-73
2022/02/11 07:34:53;;;;;;;;;;;21.30;52.40;;;;;;5054214;28;1126;-73
2022/02/11 07:37:18;;;;;;;;;;;21.20;53.40;;;;;;5052988;28;1386;-73
2022/02/11 07:39:44;;;;;;;;;;;21.30;52.90;;;;;;5054070;28;1321;-73
2022/02/11 07:42:09;;;;;;;;;;;21.30;53.60;;;;;;5053971;28;1910;-73
2022/02/11 07:44:36;;;;;;;;;;;21.30;53.10;;;;;;5054268;28;1396;-74
2022/02/11 07:47:01;;;;;;;;;;;21.30;53.20;;;;;;5053904;28;1099;-73
2022/02/11 07:49:27;;;;;;;;;;;21.30;53.20;;;;;;5054001;28;1370;-73
2022/02/11 07:51:52;;;;;;;;;;;21.30;53.30;;;;;;5053833;28;1435;-73
2022/02/11 07:54:18;;;;;;;;;;;21.20;53.30;;;;;;5052659;28;1429;-73
2022/02/11 07:56:43;;;;;;;;;;;21.20;53.30;;;;;;5052718;28;1398;-73
2022/02/11 07:59:09;;;;;;;;;;;21.20;53.30;;;;;;5052501;28;1348;-73
2022/02/11 08:01:34;;;;;;;;;;;21.20;53.30;;;;;;5053078;28;1969;-73
2022/02/11 08:04:00;;;;;;;;;;;21.20;53.40;;;;;;5052670;28;1187;-73
2022/02/11 08:06:25;;;;;;;;;;;21.20;53.40;;;;;;5051975;28;1373;-73
2022/02/11 08:08:51;;;;;;;;;;;21.20;53.40;;;;;;5052801;28;1409;-72
2022/02/11 08:11:16;;;;;;;;;;;21.20;53.50;;;;;;5053096;28;1247;-72
2022/02/11 08:13:42;;;;;;;;;;;21.10;54.10;;;;;;5052979;28;1251;-73
2022/02/11 08:16:07;;;;;;;;;;;21.10;53.60;;;;;;5053288;28;1234;-73
2022/02/11 08:18:33;;;;;;;;;;;21.10;53.60;;;;;;5051440;28;1259;-73
2022/02/11 08:20:58;;;;;;;;;;;21.10;54.20;;;;;;5051605;28;1288;-73
2022/02/11 08:23:25;;;;;;;;;;;21.00;54.60;;;;;;5051584;28;1969;-73
2022/02/11 08:25:50;;;;;;;;;;;21.00;54.60;;;;;;5051618;28;1223;-73
2022/02/11 08:28:16;;;;;;;;;;;21.10;55.10;;;;;;5051840;28;1095;-73
2022/02/11 08:30:42;;;;;;;;;;;21.10;55.00;;;;;;5051752;28;1313;-73
2022/02/11 08:33:07;;;;;;;;;;;21.00;55.00;;;;;;5051825;28;1076;-73
2022/02/11 08:35:33;;;;;;;;;;;21.00;55.30;;;;;;5051923;28;1251;-72
2022/02/11 08:37:58;;;;;;;;;;;20.90;55.40;;;;;;5051904;28;1134;-72
2022/02/11 08:40:24;;;;;;;;;;;21.00;55.90;;;;;;5052713;28;1308;-72
2022/02/11 08:42:51;;;;;;;;;;;21.00;55.70;;;;;;5050965;28;1902;-72
2022/02/11 08:45:16;;;;;;;;;;;20.90;55.70;;;;;;5053033;28;1127;-73
2022/02/11 08:47:42;;;;;;;;;;;20.90;56.00;;;;;;5052868;28;949;-73
2022/02/11 08:50:07;;;;;;;;;;;20.90;56.30;;;;;;5052628;28;1272;-73
2022/02/11 08:52:33;;;;;;;;;;;20.90;56.60;;;;;;5052950;28;1045;-73
2022/02/11 08:54:58;;;;;;;;;;;20.90;56.50;;;;;;5052861;28;1367;-72
2022/02/11 08:57:23;;;;;;;;;;;20.90;56.60;;;;;;5051723;28;1139;-72
2022/02/11 08:59:49;;;;;;;;;;;20.90;56.80;;;;;;5052406;28;1260;-73
2022/02/11 09:02:16;;;;;;;;;;;20.90;56.80;;;;;;5052437;28;1953;-72
2022/02/11 09:04:42;;;;;;;;;;;20.90;56.90;;;;;;5051593;28;1167;-73
2022/02/11 09:07:07;;;;;;;;;;;20.90;56.90;;;;;;5052733;28;1108;-72
2022/02/11 09:09:33;;;;;;;;;;;20.90;57.00;;;;;;5052630;28;1366;-72
2022/02/11 09:11:58;;;;;;;;;;;20.80;57.10;;;;;;5051768;28;1400;-73
2022/02/11 09:14:24;;;;;;;;;;;20.80;57.20;;;;;;5051322;28;1357;-72
2022/02/11 09:16:49;;;;;;;;;;;20.80;57.10;;;;;;5052524;28;1080;-72
2022/02/11 09:19:15;;;;;;;;;;;20.80;57.20;;;;;;5052052;28;1288;-73
2022/02/11 09:21:40;;;;;;;;;;;20.80;57.30;;;;;;5051386;28;1902;-72
2022/02/11 09:24:05;;;;;;;;;;;20.80;57.40;;;;;;5052548;28;1394;-72
2022/02/11 09:26:31;;;;;;;;;;;20.80;57.40;;;;;;5052876;28;1392;-73
2022/02/11 09:28:56;;;;;;;;;;;20.80;57.40;;;;;;5052244;28;1493;-72
2022/02/11 09:31:27;;;;;;;;;;;20.80;57.50;;;;;;5052512;28;1174;-72
2022/02/11 09:33:53;;;;;;;;;;;20.80;57.60;;;;;;5052683;28;1479;-73
2022/02/11 09:36:19;;;;;;;;;;;20.80;57.50;;;;;;5051391;28;1447;-72
2022/02/11 09:38:44;;;;;;;;;;;20.80;57.70;;;;;;5052216;28;1419;-73
2022/02/11 09:41:10;;;;;;;;;;;20.80;57.40;;;;;;5052666;28;1670;-72
2022/02/11 09:43:35;;;;;;;;;;;20.80;57.40;;;;;;5034557;28;1906;-72
2022/02/11 09:46:00;;;;;;;;;;;20.80;57.30;;;;;;5051682;28;1733;-72
2022/02/11 09:48:26;;;;;;;;;;;20.90;57.30;;;;;;5051987;28;1227;-73
2022/02/11 09:50:53;;;;;;;;;;;20.90;57.30;;;;;;5052356;28;1397;-72
2022/02/11 09:53:19;;;;;;;;;;;20.90;57.40;;;;;;5035622;28;1658;-73
2022/02/11 09:55:45;;;;;;;;;;;21.00;57.40;;;;;;5055134;28;1171;-72
2022/02/11 09:58:11;;;;;;;;;;;21.00;57.60;;;;;;5054991;28;1673;-72
2022/02/11 10:00:38;;;;;;;;;;;21.00;57.60;;;;;;5054518;28;1425;-73
2022/02/11 10:03:05;;;;;;;;;;;21.00;57.50;;;;;;5054901;28;1898;-73
2022/02/11 10:05:31;;;;;;;;;;;21.00;57.40;;;;;;5054791;28;1343;-73
2022/02/11 10:07:56;;;;;;;;;;;21.00;57.40;;;;;;5056256;28;1680;-73
2022/02/11 10:10:42;;;;;;;;;;;21.00;57.40;;;;;;5054316;28;1387;-72
2022/02/11 10:13:12;;;;;;;;;;;21.00;57.40;;;;;;5055366;28;1359;-73
2022/02/11 10:15:38;;;;;;;;;;;21.00;57.60;;;;;;5053353;28;1362;-72
2022/02/11 10:18:07;;;;;;;;;;;21.00;57.60;;;;;;5064324;28;1919;-73
2022/02/11 10:20:36;;;;;;;;;;;21.00;57.60;;;;;;5068521;28;1477;-73
2022/02/11 10:23:16;;;;;;;;;;;21.00;57.70;;;;;;5053986;28;1906;-73
2022/02/11 10:25:55;;;;;;;;;;;21.00;57.80;;;;;;5057483;28;1489;-73
2022/02/11 10:28:28;;;;;;;;;;;20.90;57.90;;;;;;5055410;28;1385;-73
2022/02/11 10:31:03;;;;;;;;;;;21.00;57.90;;;;;;5047552;28;1442;-72
2022/02/11 10:33:38;;;;;;;;;;;20.90;57.80;;;;;;5054361;28;1281;-73
2022/02/11 10:36:12;;;;;;;;;;;20.90;57.90;;;;;;5062633;28;1167;-73
2022/02/11 10:38:38;;;;;;;;;;;20.90;58.00;;;;;;5051036;28;1499;-73
2022/02/11 10:41:03;;;;;;;;;;;20.90;58.00;;;;;;5054005;28;1248;-73
2022/02/11 10:43:31;;;;;;;;;;;20.90;58.00;;;;;;5055380;28;1914;-72
2022/02/11 10:46:01;;;;;;;;;;;20.90;58.10;;;;;;5055461;28;1191;-72
2022/02/11 10:48:27;;;;;;;;;;;20.90;58.10;;;;;;5053426;28;2437;-72
2022/02/11 10:50:54;;;;;;;;;;;20.90;58.10;;;;;;5054003;28;1587;-73
2022/02/11 10:53:24;;;;;;;;;;;20.90;58.20;;;;;;5057201;28;1582;-73
2022/02/11 10:55:50;;;;;;;;;;;20.90;58.40;;;;;;5037515;28;1434;-73
2022/02/11 10:58:16;;;;;;;;;;;20.90;58.50;;;;;;5053722;28;1625;-73
2022/02/11 11:00:41;;;;;;;;;;;20.90;58.50;;;;;;5054968;28;1373;-73
2022/02/11 11:03:10;;;;;;;;;;;20.90;58.60;;;;;;5054578;28;1947;-73
2022/02/11 11:05:44;;;;;;;;;;;20.90;58.50;;;;;;5053820;28;1518;-72
2022/02/11 11:08:10;;;;;;;;;;;20.90;58.60;;;;;;5053696;28;1452;-73
2022/02/11 11:10:38;;;;;;;;;;;20.90;58.80;;;;;;5053365;28;1308;-73
2022/02/11 11:13:03;;;;;;;;;;;20.90;58.70;;;;;;5053656;28;1658;-73
2022/02/11 11:15:29;;;;;;;;;;;20.80;58.60;;;;;;5054770;28;1177;-73
2022/02/11 11:17:54;;;;;;;;;;;20.80;58.70;;;;;;5054695;28;1466;-73
2022/02/11 11:20:20;;;;;;;;;;;20.80;58.70;;;;;;5052983;28;1417;-73
2022/02/11 11:22:46;;;;;;;;;;;20.80;58.80;;;;;;5053444;28;1901;-73
2022/02/11 11:25:12;;;;;;;;;;;20.80;58.80;;;;;;5036747;28;1392;-74
2022/02/11 11:27:41;;;;;;;;;;;20.80;58.80;;;;;;5053413;28;1335;-74
2022/02/11 11:30:23;;;;;;;;;;;20.80;58.80;;;;;;5052655;28;1311;-73
2022/02/11 11:33:04;;;;;;;;;;;20.80;58.80;;;;;;5069934;28;1327;-73
2022/02/11 11:36:04;;;;;;;;;;;20.80;58.80;;;;;;5054263;28;1420;-73
2022/02/11 11:38:39;;;;;;;;;;;20.80;58.70;;;;;;5053038;28;1445;-74
2022/02/11 11:41:05;;;;;;;;;;;20.80;58.70;;;;;;5053027;28;1453;-73
2022/02/11 11:43:31;;;;;;;;;;;20.80;58.80;;;;;;5053092;28;1965;-73
2022/02/11 11:46:03;;;;;;;;;;;20.80;58.80;;;;;;5044128;28;1286;-73
2022/02/11 11:48:28;;;;;;;;;;;20.80;58.90;;;;;;5065854;28;1650;-73
2022/02/11 11:50:57;;;;;;;;;;;20.80;58.90;;;;;;5052246;28;1467;-73
2022/02/11 11:53:25;;;;;;;;;;;20.80;58.90;;;;;;5052924;28;1484;-73
2022/02/11 11:55:50;;;;;;;;;;;20.80;58.90;;;;;;5052801;28;973;-73
2022/02/11 11:58:29;;;;;;;;;;;20.70;58.80;;;;;;5054056;28;1393;-73
2022/02/11 12:01:03;;;;;;;;;;;20.70;58.90;;;;;;5053416;28;2016;-73
2022/02/11 12:03:33;;;;;;;;;;;20.70;58.90;;;;;;5048995;28;1890;-73
2022/02/11 12:06:01;;;;;;;;;;;20.70;58.90;;;;;;5065667;28;1975;-73
2022/02/11 12:08:29;;;;;;;;;;;20.70;59.10;;;;;;5065542;28;1435;-73
2022/02/11 12:10:57;;;;;;;;;;;20.70;59.00;;;;;;5053454;28;1580;-73
2022/02/11 12:13:23;;;;;;;;;;;20.70;59.10;;;;;;5052584;28;1508;-73
2022/02/11 12:15:48;;;;;;;;;;;20.70;59.10;;;;;;5052047;28;1622;-73
2022/02/11 12:18:14;;;;;;;;;;;20.70;59.20;;;;;;5052321;28;2017;-73
2022/02/11 12:20:39;;;;;;;;;;;20.70;59.20;;;;;;5045214;23;3795;-67
2022/02/11 12:28:41;;;;;;;;;;;20.60;59.30;;;;;;5070408;28;2147;-68
2022/02/11 12:31:07;;;;;;;;;;;20.60;59.20;;;;;;5053008;28;1515;-68
2022/02/11 12:33:33;;;;;;;;;;;20.70;59.40;;;;;;5055165;28;1396;-68
2022/02/11 12:36:08;;;;;;;;;;;20.70;59.40;;;;;;5053890;28;1950;-68
2022/02/11 12:38:33;;;;;;;;;;;20.70;59.40;;;;;;5053837;28;1484;-67
2022/02/11 12:40:59;;;;;;;;;;;20.70;59.40;;;;;;5073350;28;1205;-68
2022/02/11 12:43:29;;;;;;;;;;;20.70;59.30;;;;;;5073102;28;1952;-69
2022/02/11 12:45:54;;;;;;;;;;;20.70;59.40;;;;;;5073063;28;1257;-69
2022/02/11 12:48:27;;;;;;;;;;;20.70;59.40;;;;;;5045724;28;1244;-67
2022/02/11 12:50:53;;;;;;;;;;;20.70;59.40;;;;;;5053356;28;1317;-69
2022/02/11 12:53:19;;;;;;;;;;;20.70;59.50;;;;;;5054651;28;1756;-67
2022/02/11 12:55:49;;;;;;;;;;;20.70;59.50;;;;;;5054423;28;1382;-68
2022/02/11 12:58:15;;;;;;;;;;;20.60;59.40;;;;;;5055180;28;1568;-68
2022/02/11 13:00:41;;;;;;;;;;;20.60;59.50;;;;;;5072100;28;1365;-69
2022/02/11 13:03:07;;;;;;;;;;;20.70;59.70;;;;;;5054609;28;1948;-71
2022/02/11 13:05:43;;;;;;;;;;;20.70;59.50;;;;;;5055053;28;1578;-70
2022/02/11 13:08:09;;;;;;;;;;;20.70;57.50;;;;;;5071708;28;1221;-71
2022/02/11 13:10:35;;;;;;;;;;;20.60;55.20;;;;;;5054406;28;1388;-69
2022/02/11 13:13:06;;;;;;;;;;;20.60;54.00;;;;;;5073103;28;1346;-69
2022/02/11 13:15:32;;;;;;;;;;;20.60;52.90;;;;;;5072781;28;1242;-69
2022/02/11 13:18:12;;;;;;;;;;;20.60;52.20;;;;;;5072757;28;1319;-69
2022/02/11 13:20:38;;;;;;;;;;;20.60;51.40;;;;;;5071922;28;1386;-69
2022/02/11 13:23:03;;;;;;;;;;;20.50;50.90;;;;;;5072615;28;1902;-69
2022/02/11 13:25:29;;;;;;;;;;;20.50;50.30;;;;;;5054598;28;1210;-68
2022/02/11 13:27:56;;;;;;;;;;;20.50;49.90;;;;;;5072760;28;1197;-69
2022/02/11 13:30:23;;;;;;;;;;;20.40;49.30;;;;;;5062847;28;1304;-68
2022/02/11 13:32:50;;;;;;;;;;;20.40;49.00;;;;;;5052486;28;1026;-68
2022/02/11 13:35:15;;;;;;;;;;;20.40;48.50;;;;;;5057552;28;1071;-69
2022/02/11 13:37:45;;;;;;;;;;;20.30;48.20;;;;;;5076575;28;1148;-69
2022/02/11 13:40:24;;;;;;;;;;;20.30;47.90;;;;;;5075908;28;1340;-69
2022/02/11 13:42:59;;;;;;;;;;;20.30;47.70;;;;;;5076925;28;1966;-69
2022/02/11 13:45:25;;;;;;;;;;;20.30;47.40;;;;;;5054956;28;1361;-69
2022/02/11 13:47:58;;;;;;;;;;;20.20;47.00;;;;;;5048144;28;1338;-69
2022/02/11 13:50:23;;;;;;;;;;;20.20;46.80;;;;;;5075079;28;1365;-69
2022/02/11 13:53:05;;;;;;;;;;;20.20;46.50;;;;;;5076197;28;1271;-68
2022/02/11 13:55:31;;;;;;;;;;;20.20;46.50;;;;;;5060173;28;1023;-68
2022/02/11 13:57:57;;;;;;;;;;;20.10;46.00;;;;;;5058277;28;1298;-68
2022/02/11 14:00:37;;;;;;;;;;;20.10;46.10;;;;;;5057886;28;1239;-68
2022/02/11 14:03:03;;;;;;;;;;;20.00;45.90;;;;;;5065872;28;1957;-68
2022/02/11 14:05:31;;;;;;;;;;;20.00;45.40;;;;;;5057954;28;1388;-68
2022/02/11 14:07:56;;;;;;;;;;;20.00;45.20;;;;;;5058242;28;1401;-68
2022/02/11 14:10:22;;;;;;;;;;;19.90;44.80;;;;;;5075238;28;1449;-67
2022/02/11 14:12:47;;;;;;;;;;;19.90;44.90;;;;;;5075801;28;1352;-67
2022/02/11 14:15:12;;;;;;;;;;;19.90;44.80;;;;;;5057533;28;1537;-68
2022/02/11 14:17:40;;;;;;;;;;;19.90;44.50;;;;;;5057469;28;1033;-67
2022/02/11 14:20:06;;;;;;;;;;;19.90;44.40;;;;;;5047498;28;1291;-67
2022/02/11 14:22:31;;;;;;;;;;;19.80;44.30;;;;;;5069087;28;1898;-67
2022/02/11 14:24:58;;;;;;;;;;;19.80;44.30;;;;;;5047538;28;1465;-66
2022/02/11 14:27:23;;;;;;;;;;;19.80;44.10;;;;;;5066140;28;1278;-66
2022/02/11 14:29:49;;;;;;;;;;;19.80;43.90;;;;;;5066445;28;1410;-66
2022/02/11 14:32:15;;;;;;;;;;;19.70;43.60;;;;;;5066916;28;1278;-66
2022/02/11 14:34:41;;;;;;;;;;;19.70;43.60;;;;;;5049109;28;1239;-66
2022/02/11 14:37:07;;;;;;;;;;;19.70;43.60;;;;;;5048542;28;1219;-65
2022/02/11 14:39:32;;;;;;;;;;;19.70;43.40;;;;;;5063993;28;1407;-66
2022/02/11 14:42:01;;;;;;;;;;;19.70;43.20;;;;;;5066035;28;1960;-66
2022/02/11 14:44:27;;;;;;;;;;;19.60;43.00;;;;;;5065337;28;1211;-66
2022/02/11 14:46:57;;;;;;;;;;;19.60;42.70;;;;;;5033831;28;1229;-67
2022/02/11 14:49:22;;;;;;;;;;;19.60;42.70;;;;;;5057245;28;1355;-67
2022/02/11 14:51:51;;;;;;;;;;;19.50;42.60;;;;;;5057318;28;1743;-67
2022/02/11 14:54:17;;;;;;;;;;;19.50;42.60;;;;;;5057664;28;1212;-68
2022/02/11 14:56:42;;;;;;;;;;;19.50;42.50;;;;;;5056842;28;1420;-68
2022/02/11 14:59:08;;;;;;;;;;;19.50;42.40;;;;;;5074745;28;1274;-67
2022/02/11 15:01:34;;;;;;;;;;;19.50;43.90;;;;;;5056994;28;1690;-67
2022/02/11 15:03:59;;;;;;;;;;;19.50;44.20;;;;;;5069059;28;2122;-67
2022/02/11 15:06:25;;;;;;;;;;;19.50;45.10;;;;;;5048816;28;2241;-67
2022/02/11 15:08:50;;;;;;;;;;;19.50;45.50;;;;;;5054110;28;1413;-67
2022/02/11 15:11:17;;;;;;;;;;;19.50;45.50;;;;;;5071945;28;2329;-67
2022/02/11 15:13:42;;;;;;;;;;;19.50;45.70;;;;;;5054608;28;1085;-67
2022/02/11 15:16:08;;;;;;;;;;;19.50;45.90;;;;;;5074508;28;1062;-67
2022/02/11 15:18:33;;;;;;;;;;;19.60;46.20;;;;;;5084624;28;1063;-67
2022/02/11 15:21:04;;;;;;;;;;;19.60;46.30;;;;;;5056380;28;1367;-67
2022/02/11 15:23:33;;;;;;;;;;;19.60;46.50;;;;;;5074303;28;1905;-67
2022/02/11 15:26:02;;;;;;;;;;;19.60;46.70;;;;;;5082842;28;1287;-67
2022/02/11 15:28:28;;;;;;;;;;;19.60;46.90;;;;;;5065320;28;1410;-67
2022/02/11 15:30:53;;;;;;;;;;;19.60;47.00;;;;;;5074079;28;1276;-67
2022/02/11 15:33:18;;;;;;;;;;;19.60;47.20;;;;;;5074415;28;1003;-67
2022/02/11 15:35:44;;;;;;;;;;;19.70;47.50;;;;;;5073970;28;1104;-67
2022/02/11 15:38:09;;;;;;;;;;;19.60;47.60;;;;;;5074159;28;1079;-67
2022/02/11 15:40:35;;;;;;;;;;;19.60;47.70;;;;;;5073703;28;1327;-67
2022/02/11 15:43:00;;;;;;;;;;;19.60;47.90;;;;;;5073722;28;1959;-67
2022/02/11 15:45:26;;;;;;;;;;;19.70;48.00;;;;;;5055924;28;1270;-67
2022/02/11 15:47:52;;;;;;;;;;;19.70;48.20;;;;;;5074448;28;1122;-67
2022/02/11 15:50:17;;;;;;;;;;;19.70;48.30;;;;;;5055731;28;1302;-67
2022/02/11 15:52:43;;;;;;;;;;;19.70;48.50;;;;;;5073575;28;1320;-67
2022/02/11 15:55:10;;;;;;;;;;;19.70;48.60;;;;;;5073887;28;1325;-67
2022/02/11 15:57:36;;;;;;;;;;;19.70;48.70;;;;;;5073711;28;1042;-67
2022/02/11 16:00:02;;;;;;;;;;;19.70;48.90;;;;;;5073482;28;1312;-67
2022/02/11 16:02:27;;;;;;;;;;;19.70;48.90;;;;;;5073567;28;1937;-67
2022/02/11 16:04:52;;;;;;;;;;;19.70;49.00;;;;;;5073601;28;1286;-67
2022/02/11 16:07:18;;;;;;;;;;;19.70;49.10;;;;;;5055276;28;950;-67
2022/02/11 16:09:43;;;;;;;;;;;19.70;49.30;;;;;;5073312;28;1271;-67
2022/02/11 16:12:09;;;;;;;;;;;19.70;49.30;;;;;;5067185;28;2430;-66
2022/02/11 16:14:35;;;;;;;;;;;19.70;49.40;;;;;;5050306;28;2249;-67
2022/02/11 16:17:00;;;;;;;;;;;19.70;49.50;;;;;;5051284;28;1329;-66
2022/02/11 16:19:26;;;;;;;;;;;19.70;49.60;;;;;;5075960;28;1507;-66
2022/02/11 16:21:52;;;;;;;;;;;19.70;49.70;;;;;;5055215;28;1961;-66
2022/02/11 16:24:17;;;;;;;;;;;19.70;49.80;;;;;;5055752;28;1656;-66
2022/02/11 16:26:43;;;;;;;;;;;19.70;49.90;;;;;;5055528;28;1310;-66
2022/02/11 16:29:08;;;;;;;;;;;19.70;49.90;;;;;;5073295;28;1766;-66
2022/02/11 16:31:34;;;;;;;;;;;19.70;50.00;;;;;;5038986;28;1640;-67
2022/02/11 16:33:59;;;;;;;;;;;19.70;50.10;;;;;;5071349;28;1542;-66
2022/02/11 16:36:26;;;;;;;;;;;19.70;50.10;;;;;;5068526;28;1271;-67
2022/02/11 16:38:52;;;;;;;;;;;19.70;50.20;;;;;;5067784;28;1119;-66
2022/02/11 16:41:20;;;;;;;;;;;19.70;50.40;;;;;;5066829;28;1511;-66
2022/02/11 16:43:46;;;;;;;;;;;19.70;50.40;;;;;;5055239;28;1965;-66
2022/02/11 16:46:12;;;;;;;;;;;19.70;50.50;;;;;;5055339;28;1670;-66
2022/02/11 16:48:37;;;;;;;;;;;19.70;50.60;;;;;;5073078;28;1776;-66
2022/02/11 16:51:03;;;;;;;;;;;19.70;50.70;;;;;;5055171;28;1620;-67
2022/02/11 16:53:28;;;;;;;;;;;19.70;50.80;;;;;;5073180;28;1433;-66
2022/02/11 16:55:54;;;;;;;;;;;19.70;50.80;;;;;;5073057;28;1712;-66
2022/02/11 16:58:19;;;;;;;;;;;19.70;50.90;;;;;;5072869;28;1734;-66
2022/02/11 17:00:45;;;;;;;;;;;19.70;51.00;;;;;;5072947;28;1698;-66
2022/02/11 17:03:10;;;;;;;;;;;19.70;51.10;;;;;;5061904;28;1907;-65
2022/02/11 17:05:35;;;;;;;;;;;19.70;51.10;;;;;;5072942;28;1574;-65
2022/02/11 17:08:01;;;;;;;;;;;19.70;51.20;;;;;;5072950;28;1419;-65
2022/02/11 17:10:26;;;;;;;;;;;19.70;51.30;;;;;;5072611;28;1672;-66
2022/02/11 17:12:52;;;;;;;;;;;19.70;51.30;;;;;;5072898;28;1448;-66
2022/02/11 17:15:17;;;;;;;;;;;19.70;51.40;;;;;;5072958;28;1430;-66
2022/02/11 17:17:43;;;;;;;;;;;19.70;51.40;;;;;;5054904;28;1712;-66
2022/02/11 17:20:11;;;;;;;;;;;19.70;51.60;;;;;;5060329;28;1320;-66
2022/02/11 17:22:36;;;;;;;;;;;19.70;51.60;;;;;;5069792;28;1921;-66
2022/02/11 17:25:02;;;;;;;;;;;19.70;51.60;;;;;;5073003;28;1595;-66
2022/02/11 17:27:28;;;;;;;;;;;19.70;51.70;;;;;;5072714;28;1653;-66
2022/02/11 17:29:53;;;;;;;;;;;19.70;51.70;;;;;;5054330;28;1500;-66
2022/02/11 17:32:19;;;;;;;;;;;19.70;51.70;;;;;;5072808;28;1319;-66
2022/02/11 17:34:46;;;;;;;;;;;19.70;51.70;;;;;;5046946;28;1609;-66
2022/02/11 17:37:11;;;;;;;;;;;19.70;51.70;;;;;;5068009;28;1219;-65
2022/02/11 17:39:37;;;;;;;;;;;19.70;51.70;;;;;;5072018;28;1346;-66
2022/02/11 17:42:05;;;;;;;;;;;19.70;51.70;;;;;;5068557;28;2189;-66
2022/02/11 17:44:31;;;;;;;;;;;19.70;51.70;;;;;;5053382;28;2275;-66
2022/02/11 17:46:56;;;;;;;;;;;19.70;51.80;;;;;;5065208;28;1146;-66
2022/02/11 17:49:22;;;;;;;;;;;19.70;51.80;;;;;;5080224;28;1261;-66
2022/02/11 17:51:47;;;;;;;;;;;19.70;52.40;;;;;;5072558;28;1346;-67
2022/02/11 17:54:14;;;;;;;;;;;19.80;51.90;;;;;;5054708;28;1404;-66
2022/02/11 17:56:43;;;;;;;;;;;19.70;51.90;;;;;;5072460;28;1339;-66
2022/02/11 17:59:09;;;;;;;;;;;19.70;51.90;;;;;;5054257;28;1286;-65
2022/02/11 18:01:34;;;;;;;;;;;19.70;52.00;;;;;;5072059;28;1300;-66
2022/02/11 18:04:00;;;;;;;;;;;19.80;52.10;;;;;;5072093;28;1977;-66
2022/02/11 18:06:25;;;;;;;;;;;19.70;52.00;;;;;;5054252;28;1298;-66
2022/02/11 18:08:51;;;;;;;;;;;19.80;52.20;;;;;;5071773;28;1242;-66
2022/02/11 18:11:16;;;;;;;;;;;19.80;52.20;;;;;;5072041;28;1268;-66